createdAt,value
2022-08-17T00:00:34.492Z,10.60
2022-08-17T00:03:20.566Z,10.80
2022-08-17T00:05:53.919Z,10.90
2022-08-17T00:08:25.942Z,11.30
2022-08-17T00:10:53.885Z,11.90
2022-08-17T00:13:35.758Z,11.90
2022-08-17T00:16:17.714Z,11.60
2022-08-17T00:19:01.586Z,11.20
2022-08-17T00:22:00.024Z,13.10
2022-08-17T00:24:22.338Z,12.60
2022-08-17T00:26:49.136Z,13.50
2022-08-17T00:29:19.708Z,12.50
2022-08-17T00:31:48.111Z,12.30
2022-08-17T00:34:15.224Z,11.50
2022-08-17T00:36:42.068Z,12.50
2022-08-17T00:39:08.855Z,11.60
2022-08-17T00:41:35.859Z,11.30
2022-08-17T00:44:05.819Z,10.10
2022-08-17T00:46:43.057Z,11.60
2022-08-17T00:49:12.049Z,11.00
2022-08-17T00:51:48.147Z,10.30
2022-08-17T00:54:31.459Z,11.00
2022-08-17T00:57:02.520Z,11.00
2022-08-17T00:59:34.828Z,10.90
2022-08-17T01:02:03.531Z,10.80
2022-08-17T01:04:32.786Z,10.00
2022-08-17T01:07:01.361Z,10.30
2022-08-17T01:09:28.293Z,9.80
2022-08-17T01:11:55.034Z,10.80
2022-08-17T01:14:24.485Z,10.00
2022-08-17T01:16:54.804Z,10.50
2022-08-17T01:19:31.620Z,10.30
2022-08-17T01:22:15.981Z,10.40
2022-08-17T01:24:56.084Z,10.40
2022-08-17T01:27:23.905Z,10.40
2022-08-17T01:29:58.448Z,10.60
2022-08-17T01:32:27.630Z,11.00
2022-08-17T01:34:54.924Z,10.10
2022-08-17T01:37:31.758Z,9.90
2022-08-17T01:40:12.925Z,10.00
2022-08-17T01:45:18.824Z,9.80
2022-08-17T01:47:46.120Z,10.90
2022-08-17T01:50:23.428Z,11.10
2022-08-17T01:52:56.071Z,11.10
2022-08-17T01:55:52.237Z,11.30
2022-08-17T01:58:19.927Z,11.50
2022-08-17T02:01:00.067Z,10.60
2022-08-17T02:03:29.619Z,10.70
2022-08-17T02:05:56.931Z,10.60
2022-08-17T02:08:39.352Z,10.70
2022-08-17T02:11:18.288Z,11.00
2022-08-17T02:13:57.937Z,10.20
2022-08-17T02:16:37.715Z,11.60
2022-08-17T02:19:09.345Z,11.00
2022-08-17T02:24:08.313Z,10.00
2022-08-17T02:26:35.198Z,11.10
2022-08-17T02:29:03.453Z,10.60
2022-08-17T02:31:30.586Z,10.40
2022-08-17T02:34:04.104Z,10.50
2022-08-17T02:36:35.941Z,10.90
2022-08-17T02:39:09.850Z,11.20
2022-08-17T02:41:38.361Z,11.20
2022-08-17T02:44:06.281Z,10.80
2022-08-17T02:46:33.398Z,12.00
2022-08-17T02:49:00.273Z,11.00
2022-08-17T02:51:27.257Z,11.30
2022-08-17T02:54:35.840Z,11.20
2022-08-17T02:56:49.939Z,12.30
2022-08-17T02:59:17.675Z,12.60
2022-08-17T03:01:45.222Z,13.10
2022-08-17T03:04:13.037Z,12.60
2022-08-17T03:06:40.549Z,12.70
2022-08-17T03:09:08.655Z,13.10
2022-08-17T03:11:36.098Z,13.00
2022-08-17T03:14:03.699Z,14.20
2022-08-17T03:16:31.205Z,13.30
2022-08-17T03:18:58.803Z,13.60
2022-08-17T03:21:26.383Z,13.60
2022-08-17T03:23:54.490Z,13.30
2022-08-17T03:26:22.283Z,13.70
2022-08-17T03:28:49.745Z,13.90
2022-08-17T03:31:18.533Z,14.20
2022-08-17T03:33:45.954Z,13.90
2022-08-17T03:36:13.743Z,14.90
2022-08-17T03:38:41.254Z,14.40
2022-08-17T03:41:08.954Z,14.50
2022-08-17T03:43:36.441Z,14.40
2022-08-17T03:46:27.688Z,14.10
2022-08-17T03:49:24.452Z,13.60
2022-08-17T03:52:14.500Z,14.90
2022-08-17T03:55:02.071Z,13.30
2022-08-17T03:57:30.613Z,15.90
2022-08-17T03:59:58.507Z,14.40
2022-08-17T04:02:32.418Z,15.40
2022-08-17T04:05:01.066Z,15.40
2022-08-17T04:07:31.244Z,14.60
2022-08-17T04:09:59.752Z,15.30
2022-08-17T04:12:31.100Z,14.60
2022-08-17T04:14:59.559Z,14.50
2022-08-17T04:17:29.649Z,14.20
2022-08-17T04:19:57.503Z,13.70
2022-08-17T04:22:32.573Z,13.30
2022-08-17T04:25:16.189Z,12.90
2022-08-17T04:27:43.943Z,12.60
2022-08-17T04:30:12.290Z,12.50
2022-08-17T04:33:08.826Z,12.30
2022-08-17T04:35:41.288Z,13.40
2022-08-17T04:38:15.992Z,13.70
2022-08-17T04:41:02.604Z,12.80
2022-08-17T04:43:32.500Z,13.40
2022-08-17T04:46:04.716Z,13.00
2022-08-17T04:48:42.702Z,13.70
2022-08-17T04:51:19.660Z,12.80
2022-08-17T04:53:53.846Z,12.70
2022-08-17T04:56:25.968Z,13.30
2022-08-17T05:01:28.177Z,12.80
2022-08-17T05:03:59.690Z,13.00
2022-08-17T05:06:30.286Z,13.80
2022-08-17T05:08:59.183Z,12.90
2022-08-17T05:11:28.864Z,14.20
2022-08-17T05:13:58.877Z,17.20
2022-08-17T05:16:28.799Z,16.20
2022-08-17T05:18:58.671Z,15.50
2022-08-17T05:21:27.337Z,15.50
2022-08-17T05:23:58.527Z,14.40
2022-08-17T05:26:29.377Z,14.10
2022-08-17T05:29:02.559Z,12.50
2022-08-17T05:31:31.087Z,12.40
2022-08-17T05:33:59.323Z,12.90
2022-08-17T05:36:41.933Z,12.90
2022-08-17T05:39:11.373Z,14.10
2022-08-17T05:41:43.571Z,13.90
2022-08-17T05:44:11.534Z,13.00
2022-08-17T05:46:44.514Z,12.80
2022-08-17T05:49:14.211Z,13.20
2022-08-17T05:52:09.681Z,12.30
2022-08-17T05:55:10.800Z,13.60
2022-08-17T05:58:04.813Z,13.50
2022-08-17T06:00:47.053Z,13.80
2022-08-17T06:03:36.774Z,13.30
2022-08-17T06:06:31.191Z,13.60
2022-08-17T06:09:21.593Z,12.80
2022-08-17T06:12:14.452Z,12.80
2022-08-17T06:15:50.094Z,12.50
2022-08-17T06:18:20.853Z,13.10
2022-08-17T06:21:00.518Z,13.00
2022-08-17T06:23:38.155Z,12.90
2022-08-17T06:26:16.877Z,12.90
2022-08-17T06:28:53.877Z,13.50
2022-08-17T06:31:29.136Z,13.20
2022-08-17T06:34:02.947Z,14.10
2022-08-17T06:37:00.657Z,14.60
2022-08-17T06:40:04.843Z,13.70
2022-08-17T06:43:23.062Z,14.40
2022-08-17T06:46:05.875Z,14.30
2022-08-17T06:48:47.300Z,14.10
2022-08-17T06:51:40.478Z,14.60
2022-08-17T06:54:58.809Z,15.00
2022-08-17T06:57:31.831Z,14.20
2022-08-17T07:00:19.947Z,14.90
2022-08-17T07:03:02.649Z,13.70
2022-08-17T07:06:06.118Z,14.90
2022-08-17T07:08:55.240Z,15.10
2022-08-17T07:11:31.578Z,14.40
2022-08-17T07:14:39.123Z,14.10
2022-08-17T07:17:17.326Z,14.60
2022-08-17T07:19:49.698Z,14.60
2022-08-17T07:23:08.774Z,15.20
2022-08-17T07:25:36.354Z,15.80
2022-08-17T07:28:07.853Z,14.80
2022-08-17T07:30:47.373Z,15.10
2022-08-17T07:33:22.804Z,15.20
2022-08-17T07:35:50.754Z,14.80
2022-08-17T07:38:28.288Z,15.70
2022-08-17T07:41:02.144Z,14.80
2022-08-17T07:43:32.934Z,15.20
2022-08-17T07:46:53.692Z,14.90
2022-08-17T07:49:37.151Z,15.50
2022-08-17T07:52:51.256Z,14.10
2022-08-17T07:55:34.850Z,13.70
2022-08-17T07:58:03.485Z,13.60
2022-08-17T08:00:33.007Z,14.20
2022-08-17T08:03:21.806Z,14.20
2022-08-17T08:05:56.763Z,15.20
2022-08-17T08:08:29.204Z,15.00
2022-08-17T08:11:07.257Z,15.40
2022-08-17T08:13:42.736Z,14.50
2022-08-17T08:16:22.685Z,15.20
2022-08-17T08:18:57.142Z,15.80
2022-08-17T08:21:52.933Z,15.10
2022-08-17T08:24:53.020Z,14.60
2022-08-17T08:27:27.199Z,13.90
2022-08-17T08:30:09.423Z,13.90
2022-08-17T08:33:08.715Z,13.70
2022-08-17T08:36:07.415Z,12.90
2022-08-17T08:39:04.105Z,12.80
2022-08-17T08:41:54.717Z,13.00
2022-08-17T08:45:00.974Z,13.40
2022-08-17T08:47:41.655Z,12.60
2022-08-17T08:50:47.698Z,12.90
2022-08-17T08:53:28.869Z,11.70
2022-08-17T08:58:43.653Z,13.30
2022-08-17T09:01:26.092Z,12.10
2022-08-17T09:04:27.561Z,12.60
2022-08-17T09:07:39.113Z,11.20
2022-08-17T09:10:25.532Z,12.20
2022-08-17T09:13:22.163Z,12.70
2022-08-17T09:16:29.913Z,12.00
2022-08-17T09:19:23.467Z,12.80
2022-08-17T09:22:17.578Z,12.00
2022-08-17T09:24:57.337Z,12.20
2022-08-17T09:27:35.807Z,12.20
2022-08-17T09:30:09.860Z,13.30
2022-08-17T09:32:45.635Z,13.20
2022-08-17T09:35:22.927Z,12.30
2022-08-17T09:38:04.185Z,13.20
2022-08-17T09:40:44.326Z,13.50
2022-08-17T09:43:38.716Z,12.80
2022-08-17T09:46:15.982Z,13.80
2022-08-17T09:49:09.755Z,13.60
2022-08-17T09:51:49.608Z,13.90
2022-08-17T09:54:40.179Z,14.20
2022-08-17T09:57:31.705Z,13.60
2022-08-17T10:00:11.714Z,14.30
2022-08-17T10:03:18.011Z,14.30
2022-08-17T10:06:13.326Z,13.30
2022-08-17T10:09:07.335Z,14.60
2022-08-17T10:12:20.580Z,14.60
2022-08-17T10:15:14.133Z,15.60
2022-08-17T10:18:24.599Z,15.40
2022-08-17T10:21:26.580Z,16.80
2022-08-17T10:24:29.707Z,17.50
2022-08-17T10:27:00.931Z,16.40
2022-08-17T10:29:48.655Z,17.00
2022-08-17T10:32:36.041Z,17.90
2022-08-17T10:35:22.507Z,15.70
2022-08-17T10:38:24.496Z,17.60
2022-08-17T10:41:19.740Z,17.30
2022-08-17T10:44:38.932Z,17.30
2022-08-17T10:47:15.044Z,16.70
2022-08-17T10:49:53.816Z,16.90
2022-08-17T10:52:26.256Z,18.00
2022-08-17T10:54:58.182Z,16.60
2022-08-17T10:57:29.304Z,17.70
2022-08-17T11:00:14.848Z,17.60
2022-08-17T11:02:54.193Z,18.30
2022-08-17T11:05:46.296Z,16.90
2022-08-17T11:08:59.649Z,16.80
2022-08-17T11:11:52.560Z,15.90
2022-08-17T11:14:48.752Z,15.80
2022-08-17T11:17:50.248Z,17.60
2022-08-17T11:20:26.620Z,15.40
2022-08-17T11:23:31.135Z,14.70
2022-08-17T11:26:04.177Z,16.70
2022-08-17T11:28:35.979Z,17.00
2022-08-17T11:31:10.633Z,16.70
2022-08-17T11:33:44.952Z,16.20
2022-08-17T11:36:51.723Z,16.30
2022-08-17T11:39:45.586Z,17.70
2022-08-17T11:42:47.223Z,16.40
2022-08-17T11:45:47.195Z,15.60
2022-08-17T11:49:04.359Z,15.00
2022-08-17T11:52:40.397Z,14.20
2022-08-17T11:55:37.449Z,13.90
2022-08-17T11:58:29.616Z,14.40
2022-08-17T12:01:12.355Z,14.60
2022-08-17T12:03:55.485Z,15.70
2022-08-17T12:06:42.665Z,14.50
2022-08-17T12:09:22.257Z,14.80
2022-08-17T12:12:12.609Z,14.90
2022-08-17T12:15:12.926Z,16.80
2022-08-17T12:17:42.975Z,17.20
2022-08-17T12:20:16.310Z,18.00
2022-08-17T12:23:04.458Z,17.20
2022-08-17T12:25:42.565Z,18.10
2022-08-17T12:28:47.747Z,17.50
2022-08-17T12:31:36.113Z,18.60
2022-08-17T12:34:05.043Z,20.90
2022-08-17T12:36:33.177Z,20.20
2022-08-17T12:39:13.306Z,19.60
2022-08-17T12:41:46.954Z,22.00
2022-08-17T12:44:22.418Z,20.90
2022-08-17T12:47:19.408Z,20.50
2022-08-17T12:49:54.995Z,20.10
2022-08-17T12:52:29.534Z,19.60
2022-08-17T12:55:18.662Z,19.10
2022-08-17T12:57:51.328Z,21.40
2022-08-17T13:00:33.680Z,20.00
2022-08-17T13:03:02.719Z,21.10
2022-08-17T13:05:41.078Z,20.40
2022-08-17T13:08:28.385Z,19.30
2022-08-17T13:11:24.882Z,19.70
2022-08-17T13:13:56.126Z,19.80
2022-08-17T13:16:30.660Z,20.00
2022-08-17T13:19:10.110Z,19.70
2022-08-17T13:21:48.131Z,19.00
2022-08-17T13:24:38.540Z,16.70
2022-08-17T13:27:12.262Z,18.40
2022-08-17T13:29:53.557Z,19.00
2022-08-17T13:32:36.394Z,16.60
2022-08-17T13:35:50.008Z,17.10
2022-08-17T13:38:45.763Z,17.30
2022-08-17T13:41:34.774Z,16.90
2022-08-17T13:44:04.278Z,17.30
2022-08-17T13:46:33.282Z,13.40
2022-08-17T13:49:06.103Z,13.30
2022-08-17T13:51:46.257Z,13.00
2022-08-17T13:54:37.145Z,13.80
2022-08-17T13:57:22.787Z,13.50
2022-08-17T14:00:07.526Z,13.00
2022-08-17T14:02:35.243Z,14.80
2022-08-17T14:05:06.064Z,13.80
2022-08-17T14:07:40.262Z,13.30
2022-08-17T14:10:18.376Z,12.00
2022-08-17T14:12:45.939Z,9.50
2022-08-17T14:15:17.742Z,10.30
2022-08-17T14:17:45.199Z,10.40
2022-08-17T14:20:13.883Z,9.80
2022-08-17T14:22:52.285Z,9.20
2022-08-17T14:25:27.818Z,9.50
2022-08-17T14:27:55.938Z,10.10
2022-08-17T14:30:29.629Z,10.90
2022-08-17T14:32:59.015Z,10.20
2022-08-17T14:35:28.284Z,10.10
2022-08-17T14:37:56.613Z,9.60
2022-08-17T14:40:25.173Z,9.80
2022-08-17T14:42:55.464Z,10.80
2022-08-17T14:45:32.370Z,10.90
2022-08-17T14:48:07.846Z,10.80
2022-08-17T14:50:41.150Z,10.60
2022-08-17T14:53:16.425Z,9.90
2022-08-17T14:55:46.869Z,10.00
2022-08-17T14:58:14.906Z,10.10
2022-08-17T15:00:43.740Z,9.50
2022-08-17T15:03:11.854Z,10.50
2022-08-17T15:05:40.133Z,9.20
2022-08-17T15:08:07.939Z,10.00
2022-08-17T15:10:36.180Z,10.20
2022-08-17T15:13:03.871Z,9.40
2022-08-17T15:15:31.362Z,10.40
2022-08-17T15:18:00.088Z,10.00
2022-08-17T15:20:29.817Z,9.20
2022-08-17T15:22:59.116Z,7.20
2022-08-17T15:25:30.322Z,7.00
2022-08-17T15:27:59.518Z,7.10
2022-08-17T15:30:28.779Z,6.50
2022-08-17T15:32:58.708Z,7.60
2022-08-17T15:35:30.842Z,6.70
2022-08-17T15:38:10.192Z,7.50
2022-08-17T15:40:45.150Z,7.50
2022-08-17T15:43:23.340Z,7.90
2022-08-17T15:46:07.937Z,7.80
2022-08-17T15:48:44.818Z,6.10
2022-08-17T15:51:24.236Z,7.80
2022-08-17T15:53:56.900Z,5.90
2022-08-17T15:56:26.628Z,5.20
2022-08-17T15:58:55.288Z,5.30
2022-08-17T16:01:45.442Z,5.00
2022-08-17T16:04:26.785Z,5.70
2022-08-17T16:06:58.932Z,5.10
2022-08-17T16:09:26.542Z,4.80
2022-08-17T16:11:55.317Z,4.80
2022-08-17T16:14:33.515Z,4.90
2022-08-17T16:17:04.802Z,5.00
2022-08-17T16:19:52.422Z,5.10
2022-08-17T16:22:33.561Z,4.40
2022-08-17T16:25:06.630Z,4.30
2022-08-17T16:27:34.492Z,3.50
2022-08-17T16:30:04.799Z,3.40
2022-08-17T16:32:33.038Z,3.60
2022-08-17T16:35:08.956Z,4.50
2022-08-17T16:37:37.344Z,4.50
2022-08-17T16:40:07.149Z,4.70
2022-08-17T16:42:37.485Z,4.40
2022-08-17T16:45:17.023Z,5.30
2022-08-17T16:47:45.339Z,5.40
2022-08-17T16:50:17.930Z,4.70
2022-08-17T16:52:48.543Z,4.80
2022-08-17T16:55:21.869Z,5.10
2022-08-17T16:57:50.674Z,6.60
2022-08-17T17:00:19.484Z,4.50
2022-08-17T17:02:49.624Z,5.00
2022-08-17T17:05:40.872Z,4.80
2022-08-17T17:08:28.814Z,4.70
2022-08-17T17:10:59.474Z,5.60
2022-08-17T17:14:02.305Z,5.00
2022-08-17T17:16:53.105Z,5.00
2022-08-17T17:19:37.971Z,5.40
2022-08-17T17:22:30.370Z,5.70
2022-08-17T17:25:16.112Z,6.10
2022-08-17T17:27:53.527Z,5.70
2022-08-17T17:30:24.690Z,6.00
2022-08-17T17:33:10.652Z,7.10
2022-08-17T17:35:57.724Z,6.40
2022-08-17T17:38:32.562Z,7.00
2022-08-17T17:41:11.938Z,6.90
2022-08-17T17:43:41.040Z,6.40
2022-08-17T17:46:27.599Z,6.20
2022-08-17T17:48:57.933Z,7.20
2022-08-17T17:52:07.159Z,7.00
2022-08-17T17:55:00.179Z,8.20
2022-08-17T17:57:56.644Z,8.40
2022-08-17T18:00:30.447Z,8.20
2022-08-17T18:04:20.296Z,7.70
2022-08-17T18:07:02.819Z,7.10
2022-08-17T18:10:01.591Z,7.30
2022-08-17T18:12:42.956Z,8.10
2022-08-17T18:15:29.649Z,7.80
2022-08-17T18:18:15.320Z,8.40
2022-08-17T18:20:53.630Z,8.10
2022-08-17T18:23:27.959Z,7.40
2022-08-17T18:25:57.151Z,7.70
2022-08-17T18:28:34.607Z,8.80
2022-08-17T18:31:20.441Z,8.30
2022-08-17T18:33:52.580Z,7.40
2022-08-17T18:36:46.425Z,8.20
2022-08-17T18:39:27.758Z,7.30
2022-08-17T18:41:59.267Z,8.50
2022-08-17T18:44:43.384Z,8.00
2022-08-17T18:47:27.079Z,8.50
2022-08-17T18:50:43.985Z,8.50
2022-08-17T18:53:41.042Z,9.10
2022-08-17T18:56:30.938Z,8.60
2022-08-17T18:59:26.968Z,9.00
2022-08-17T19:02:24.867Z,8.60
2022-08-17T19:05:09.230Z,8.50
2022-08-17T19:07:41.064Z,9.50
2022-08-17T19:10:23.632Z,9.30
2022-08-17T19:13:12.809Z,9.50
2022-08-17T19:16:13.170Z,10.20
2022-08-17T19:18:52.723Z,10.30
2022-08-17T19:21:32.916Z,10.40
2022-08-17T19:24:13.239Z,9.90
2022-08-17T19:26:55.457Z,13.80
2022-08-17T19:29:43.206Z,11.50
2022-08-17T19:32:15.344Z,12.80
2022-08-17T19:34:44.739Z,12.40
2022-08-17T19:37:34.973Z,10.40
2022-08-17T19:40:54.843Z,12.60
2022-08-17T19:44:02.496Z,9.40
2022-08-17T19:46:48.688Z,9.60
2022-08-17T19:50:04.069Z,9.80
2022-08-17T19:52:58.064Z,10.70
2022-08-17T19:56:06.907Z,10.30
2022-08-17T19:59:01.187Z,9.80
2022-08-17T20:01:54.258Z,10.90
2022-08-17T20:04:36.467Z,10.30
2022-08-17T20:07:11.307Z,9.40
2022-08-17T20:09:51.901Z,9.20
2022-08-17T20:12:27.045Z,10.00
2022-08-17T20:15:10.388Z,10.60
2022-08-17T20:17:42.922Z,11.00
2022-08-17T20:20:20.182Z,10.60
2022-08-17T20:23:12.833Z,11.30
2022-08-17T20:26:27.546Z,11.70
2022-08-17T20:29:15.924Z,10.80
2022-08-17T20:31:49.074Z,11.60
2022-08-17T20:34:33.743Z,10.70
2022-08-17T20:37:44.273Z,10.90
2022-08-17T20:40:20.582Z,10.60
2022-08-17T20:42:48.183Z,10.90
2022-08-17T20:45:21.772Z,11.70
2022-08-17T20:48:35.046Z,11.40
2022-08-17T20:50:56.496Z,12.60
2022-08-17T20:53:53.408Z,12.20
2022-08-17T20:56:43.229Z,11.10
2022-08-17T20:59:25.689Z,10.20
2022-08-17T21:02:08.053Z,10.80
2022-08-17T21:04:50.717Z,10.40
2022-08-17T21:07:43.215Z,10.40
2022-08-17T21:10:23.354Z,10.50
2022-08-17T21:12:58.159Z,10.70
2022-08-17T21:15:41.896Z,10.10
2022-08-17T21:18:26.030Z,10.60
2022-08-17T21:21:28.697Z,10.40
2022-08-17T21:24:51.768Z,10.80
2022-08-17T21:28:04.425Z,10.70
2022-08-17T21:30:34.800Z,11.70
2022-08-17T21:33:20.099Z,12.10
2022-08-17T21:35:59.699Z,11.30
2022-08-17T21:38:47.447Z,11.90
2022-08-17T21:41:53.168Z,11.70
2022-08-17T21:44:40.212Z,12.70
2022-08-17T21:47:20.071Z,12.20
2022-08-17T21:49:48.126Z,11.90
2022-08-17T21:52:18.744Z,12.10
2022-08-17T21:54:54.771Z,11.20
2022-08-17T21:57:29.070Z,11.80
2022-08-17T22:00:00.467Z,11.20
2022-08-17T22:02:38.086Z,11.70
2022-08-17T22:05:13.744Z,10.90
2022-08-17T22:07:47.811Z,10.90
2022-08-17T22:10:30.603Z,11.10
2022-08-17T22:13:20.984Z,11.20
2022-08-17T22:16:28.336Z,12.00
2022-08-17T22:18:58.083Z,11.80
2022-08-17T22:21:26.243Z,11.90
2022-08-17T22:24:07.347Z,11.80
2022-08-17T22:29:58.081Z,14.20
2022-08-17T22:32:37.414Z,12.10
2022-08-17T22:35:43.412Z,11.60
2022-08-17T22:38:19.719Z,12.80
2022-08-17T22:40:51.247Z,13.00
2022-08-17T22:43:26.084Z,12.70
2022-08-17T22:45:58.732Z,12.80
2022-08-17T22:48:31.842Z,14.60
2022-08-17T22:51:13.625Z,14.20
2022-08-17T22:54:11.033Z,13.60
2022-08-17T22:57:06.122Z,14.20
2022-08-17T22:59:50.246Z,14.80
2022-08-17T23:02:29.115Z,13.90
2022-08-17T23:05:16.832Z,14.90
2022-08-17T23:07:46.714Z,14.90
2022-08-17T23:10:15.356Z,12.40
2022-08-17T23:12:42.850Z,12.50
2022-08-17T23:15:17.959Z,12.70
2022-08-17T23:17:46.250Z,11.80
2022-08-17T23:20:15.741Z,12.70
2022-08-17T23:22:51.723Z,13.00
2022-08-17T23:25:33.537Z,13.90
2022-08-17T23:28:04.294Z,13.40
2022-08-17T23:30:36.168Z,13.10
2022-08-17T23:33:08.037Z,13.20
2022-08-17T23:35:40.635Z,12.80
2022-08-17T23:38:13.295Z,12.20
2022-08-17T23:40:41.215Z,12.80
2022-08-17T23:43:25.556Z,12.10
2022-08-17T23:45:59.647Z,12.20
2022-08-17T23:48:36.224Z,11.70
2022-08-17T23:51:10.227Z,12.20
2022-08-17T23:53:42.822Z,12.60
2022-08-17T23:56:11.334Z,12.20
2022-08-17T23:58:44.873Z,12.40
